EWG36AZ LPPT-EDDH
Flight info
| Callsign | EWG36AZ |
|---|---|
| Flight time | N/A |
| Altitude | 36000 |
| Route | IXIDA DCT TOSDI DCT ZMR DCT NUBLO DCT RONSI DCT DELOG DCT PEXOD DCT DIDIG DCT USODA DCT ERCUT DCT DITAL UN873 BAZOS DCT BELDI DCT VEKIN DCT ADUTO N873 VICOT/N0447F370 DCT PIPQU DCT PABCO M105 RIBSO RIBSO7A |
| Aircraft | A21N/M-SDE2E3FGIJ1LORWXYZ/HB1 |
Departure
| Time | 2026-05-06 17:13 |
|---|---|
| Airport | Lisbon Humberto Delgado Airport (LPPT) |
Arrival
| Time | N/A |
|---|---|
| Airport | Hamburg Helmut Schmidt Airport (EDDH) |
| Time | Latitude | Longitude | Altitude | Speed | Heading |
|---|---|---|---|---|---|
| 2026-05-06 16:39 | 38.76449 | -9.13828 | 350 ft | 0 kts | 170° |
| 2026-05-06 17:04 | 38.76458 | -9.13831 | 359 ft | 2 kts | 169° |
| 2026-05-06 17:04 | 38.76475 | -9.13835 | 356 ft | 2 kts | 169° |
| 2026-05-06 17:04 | 38.76491 | -9.13838 | 356 ft | 2 kts | 169° |
| 2026-05-06 17:04 | 38.76507 | -9.13839 | 353 ft | 2 kts | 206° |
| 2026-05-06 17:05 | 38.76519 | -9.13825 | 356 ft | 2 kts | 237° |
| 2026-05-06 17:05 | 38.76526 | -9.13806 | 358 ft | 2 kts | 255° |
| 2026-05-06 17:05 | 38.76529 | -9.13788 | 358 ft | 1 kts | 258° |
| 2026-05-06 17:05 | 38.76530 | -9.13786 | 358 ft | 0 kts | 258° |
| 2026-05-06 17:08 | 38.76529 | -9.13789 | 350 ft | 2 kts | 258° |
| 2026-05-06 17:09 | 38.76525 | -9.13814 | 353 ft | 3 kts | 258° |
| 2026-05-06 17:09 | 38.76521 | -9.13842 | 350 ft | 7 kts | 258° |
| 2026-05-06 17:09 | 38.76519 | -9.13917 | 350 ft | 9 kts | 296° |
| 2026-05-06 17:09 | 38.76567 | -9.13946 | 352 ft | 8 kts | 321° |
| 2026-05-06 17:10 | 38.76563 | -9.14005 | 356 ft | 8 kts | 231° |
| 2026-05-06 17:10 | 38.76506 | -9.14097 | 358 ft | 10 kts | 240° |
| 2026-05-06 17:10 | 38.76496 | -9.14181 | 355 ft | 9 kts | 299° |
| 2026-05-06 17:10 | 38.76513 | -9.14225 | 351 ft | 8 kts | 292° |
| 2026-05-06 17:11 | 38.76538 | -9.14302 | 351 ft | 11 kts | 292° |
| 2026-05-06 17:11 | 38.76570 | -9.14405 | 347 ft | 11 kts | 294° |
| 2026-05-06 17:11 | 38.76588 | -9.14419 | 353 ft | 1 kts | 22° |
| 2026-05-06 17:11 | 38.76607 | -9.14409 | 348 ft | 10 kts | 24° |
| 2026-05-06 17:12 | 38.76833 | -9.14289 | 349 ft | 63 kts | 23° |
| 2026-05-06 17:12 | 38.77408 | -9.13981 | 357 ft | 119 kts | 23° |
| 2026-05-06 17:12 | 38.78345 | -9.13468 | 389 ft | 164 kts | 13° |
| 2026-05-06 17:12 | 38.79371 | -9.12896 | 924 ft | 163 kts | 21° |
| 2026-05-06 17:13 | 38.80406 | -9.12219 | 1397 ft | 169 kts | 24° |
| 2026-05-06 17:13 | 38.81443 | -9.11414 | 1889 ft | 185 kts | 28° |
| 2026-05-06 17:13 | 38.82611 | -9.10517 | 2267 ft | 206 kts | 24° |
| 2026-05-06 17:13 | 38.83947 | -9.09563 | 2589 ft | 233 kts | 25° |
| 2026-05-06 17:14 | 38.85392 | -9.08532 | 3229 ft | 245 kts | 26° |
| 2026-05-06 17:14 | 38.86903 | -9.07449 | 3984 ft | 251 kts | 26° |
| 2026-05-06 17:14 | 38.88447 | -9.06341 | 4832 ft | 258 kts | 28° |
| 2026-05-06 17:14 | 38.89969 | -9.05053 | 5637 ft | 265 kts | 39° |
| 2026-05-06 17:15 | 38.91371 | -9.03494 | 6506 ft | 269 kts | 42° |
| 2026-05-06 17:15 | 38.92764 | -9.01859 | 7313 ft | 273 kts | 43° |
| 2026-05-06 17:15 | 38.94176 | -9.00196 | 8084 ft | 278 kts | 42° |
| 2026-05-06 17:15 | 38.95617 | -8.98503 | 8872 ft | 283 kts | 42° |
| 2026-05-06 17:16 | 38.97085 | -8.96783 | 9668 ft | 287 kts | 42° |
| 2026-05-06 17:16 | 38.98581 | -8.95033 | 10286 ft | 298 kts | 41° |
| 2026-05-06 17:16 | 39.00168 | -8.93180 | 10584 ft | 319 kts | 42° |
| 2026-05-06 17:16 | 39.01864 | -8.91199 | 10897 ft | 339 kts | 42° |
| 2026-05-06 17:17 | 39.03657 | -8.89102 | 11194 ft | 358 kts | 42° |
| 2026-05-06 17:17 | 39.05527 | -8.86915 | 11748 ft | 367 kts | 42° |
| 2026-05-06 17:17 | 39.07438 | -8.84676 | 12354 ft | 375 kts | 42° |
| 2026-05-06 17:17 | 39.09384 | -8.82397 | 13070 ft | 380 kts | 41° |
| 2026-05-06 17:18 | 39.11353 | -8.80087 | 13714 ft | 387 kts | 41° |
| 2026-05-06 17:18 | 39.13358 | -8.77735 | 14327 ft | 391 kts | 41° |
| 2026-05-06 17:18 | 39.15378 | -8.75361 | 14943 ft | 397 kts | 42° |
| 2026-05-06 17:18 | 39.17347 | -8.72833 | 15578 ft | 400 kts | 47° |
| 2026-05-06 17:19 | 39.19223 | -8.70156 | 16235 ft | 405 kts | 48° |
| 2026-05-06 17:19 | 39.21094 | -8.67419 | 16899 ft | 407 kts | 49° |
| 2026-05-06 17:19 | 39.22948 | -8.64698 | 17510 ft | 411 kts | 49° |
| 2026-05-06 17:19 | 39.24868 | -8.61876 | 18119 ft | 415 kts | 49° |
| 2026-05-06 17:20 | 39.26759 | -8.59099 | 18635 ft | 419 kts | 49° |
| 2026-05-06 17:20 | 39.28691 | -8.56259 | 19140 ft | 423 kts | 49° |
| 2026-05-06 17:20 | 39.30641 | -8.53392 | 19634 ft | 427 kts | 49° |
| 2026-05-06 17:20 | 39.32603 | -8.50504 | 20187 ft | 428 kts | 49° |
| 2026-05-06 17:21 | 39.34577 | -8.47597 | 20674 ft | 432 kts | 49° |
| 2026-05-06 17:21 | 39.36566 | -8.44665 | 21224 ft | 434 kts | 49° |
| 2026-05-06 17:21 | 39.38569 | -8.41711 | 21686 ft | 439 kts | 49° |
| 2026-05-06 17:21 | 39.40586 | -8.38732 | 22231 ft | 441 kts | 49° |
| 2026-05-06 17:22 | 39.42611 | -8.35738 | 22686 ft | 445 kts | 49° |
| 2026-05-06 17:22 | 39.44652 | -8.32719 | 23198 ft | 446 kts | 49° |
| 2026-05-06 17:22 | 39.46691 | -8.29699 | 23685 ft | 447 kts | 49° |
| 2026-05-06 17:22 | 39.48746 | -8.26653 | 24038 ft | 451 kts | 49° |
| 2026-05-06 17:23 | 39.50815 | -8.23583 | 24372 ft | 454 kts | 49° |
| 2026-05-06 17:23 | 39.52899 | -8.20486 | 24741 ft | 457 kts | 49° |
| 2026-05-06 17:23 | 39.54989 | -8.17379 | 25114 ft | 459 kts | 49° |
| 2026-05-06 17:23 | 39.57093 | -8.14248 | 25446 ft | 462 kts | 49° |
| 2026-05-06 17:24 | 39.59210 | -8.11093 | 25771 ft | 465 kts | 49° |
| 2026-05-06 17:24 | 39.61338 | -8.07920 | 26092 ft | 468 kts | 49° |
| 2026-05-06 17:24 | 39.63480 | -8.04722 | 26405 ft | 470 kts | 49° |
| 2026-05-06 17:24 | 39.65643 | -8.01525 | 26700 ft | 473 kts | 47° |
| 2026-05-06 17:25 | 39.67924 | -7.98433 | 27001 ft | 475 kts | 45° |
| 2026-05-06 17:25 | 39.70289 | -7.95423 | 27296 ft | 478 kts | 43° |
| 2026-05-06 17:25 | 39.72706 | -7.92430 | 27600 ft | 480 kts | 43° |
| 2026-05-06 17:25 | 39.75130 | -7.89447 | 27994 ft | 479 kts | 43° |
| 2026-05-06 17:26 | 39.77541 | -7.86466 | 28432 ft | 478 kts | 43° |
| 2026-05-06 17:26 | 39.79947 | -7.83467 | 28855 ft | 477 kts | 43° |
| 2026-05-06 17:26 | 39.82337 | -7.80467 | 29200 ft | 478 kts | 44° |
| 2026-05-06 17:26 | 39.84722 | -7.77457 | 29563 ft | 478 kts | 44° |
| 2026-05-06 17:27 | 39.87105 | -7.74438 | 29911 ft | 478 kts | 44° |
| 2026-05-06 17:27 | 39.89484 | -7.71417 | 30211 ft | 478 kts | 44° |
| 2026-05-06 17:27 | 39.91862 | -7.68395 | 30491 ft | 478 kts | 44° |
| 2026-05-06 17:27 | 39.94243 | -7.65365 | 30761 ft | 478 kts | 44° |
| 2026-05-06 17:28 | 39.96618 | -7.62341 | 31030 ft | 478 kts | 43° |
| 2026-05-06 17:28 | 39.99001 | -7.59305 | 31283 ft | 478 kts | 43° |
| 2026-05-06 17:28 | 40.01374 | -7.56277 | 31609 ft | 477 kts | 43° |
| 2026-05-06 17:28 | 40.03742 | -7.53255 | 31930 ft | 475 kts | 43° |
| 2026-05-06 17:29 | 40.06103 | -7.50237 | 32181 ft | 475 kts | 43° |
| 2026-05-06 17:29 | 40.08466 | -7.47215 | 32400 ft | 476 kts | 43° |
| 2026-05-06 17:29 | 40.10831 | -7.44186 | 32600 ft | 476 kts | 43° |
| 2026-05-06 17:29 | 40.13164 | -7.41197 | 32834 ft | 476 kts | 43° |
| 2026-05-06 17:30 | 40.15561 | -7.38119 | 33036 ft | 477 kts | 43° |
| 2026-05-06 17:30 | 40.17897 | -7.35119 | 33259 ft | 477 kts | 43° |
| 2026-05-06 17:30 | 40.20262 | -7.32077 | 33483 ft | 477 kts | 43° |
| 2026-05-06 17:30 | 40.22623 | -7.29038 | 33666 ft | 477 kts | 43° |
| 2026-05-06 17:31 | 40.24992 | -7.25987 | 33888 ft | 477 kts | 43° |
| 2026-05-06 17:31 | 40.27355 | -7.22938 | 34102 ft | 476 kts | 43° |
| 2026-05-06 17:31 | 40.29707 | -7.19901 | 34348 ft | 473 kts | 43° |
| 2026-05-06 17:31 | 40.32040 | -7.16884 | 34631 ft | 470 kts | 43° |
| 2026-05-06 17:32 | 40.34368 | -7.13871 | 34816 ft | 470 kts | 43° |
| 2026-05-06 17:32 | 40.36693 | -7.10860 | 34943 ft | 470 kts | 43° |
| 2026-05-06 17:32 | 40.39020 | -7.07844 | 35073 ft | 471 kts | 43° |
| 2026-05-06 17:32 | 40.41349 | -7.04821 | 35216 ft | 471 kts | 43° |
| 2026-05-06 17:33 | 40.43677 | -7.01798 | 35347 ft | 470 kts | 43° |
| 2026-05-06 17:33 | 40.46003 | -6.98773 | 35499 ft | 470 kts | 43° |
| 2026-05-06 17:33 | 40.48325 | -6.95751 | 35630 ft | 470 kts | 43° |
| 2026-05-06 17:33 | 40.50651 | -6.92720 | 35751 ft | 470 kts | 43° |
| 2026-05-06 17:34 | 40.52973 | -6.89690 | 35848 ft | 471 kts | 43° |
| 2026-05-06 17:34 | 40.57644 | -6.83588 | 35876 ft | 474 kts | 43° |
| 2026-05-06 17:35 | 40.62313 | -6.77475 | 35885 ft | 472 kts | 43° |
| 2026-05-06 17:35 | 40.66963 | -6.71372 | 35878 ft | 472 kts | 43° |
| 2026-05-06 17:36 | 40.73931 | -6.62207 | 35894 ft | 471 kts | 43° |
| 2026-05-06 17:36 | 40.78564 | -6.56097 | 35886 ft | 471 kts | 43° |
| 2026-05-06 17:37 | 40.83161 | -6.50021 | 35895 ft | 471 kts | 43° |
| 2026-05-06 17:37 | 40.87784 | -6.43898 | 35886 ft | 470 kts | 43° |
| 2026-05-06 17:38 | 40.92397 | -6.37775 | 35894 ft | 470 kts | 43° |
| 2026-05-06 17:38 | 40.97006 | -6.31646 | 35901 ft | 470 kts | 43° |
| 2026-05-06 17:39 | 41.01686 | -6.25640 | 35893 ft | 468 kts | 40° |
| 2026-05-06 17:39 | 41.06529 | -6.19883 | 35901 ft | 467 kts | 39° |
| 2026-05-06 17:40 | 41.11391 | -6.14161 | 35912 ft | 467 kts | 40° |
| 2026-05-06 17:40 | 41.16235 | -6.08405 | 35901 ft | 467 kts | 40° |
| 2026-05-06 17:41 | 41.21200 | -6.02859 | 35901 ft | 464 kts | 31° |
| 2026-05-06 17:41 | 41.26816 | -5.98751 | 35903 ft | 460 kts | 24° |
| 2026-05-06 17:42 | 41.32602 | -5.95107 | 35904 ft | 460 kts | 22° |
| 2026-05-06 17:42 | 41.38423 | -5.91557 | 35910 ft | 460 kts | 22° |
| 2026-05-06 17:43 | 41.44234 | -5.87983 | 35916 ft | 460 kts | 22° |
| 2026-05-06 17:43 | 41.50029 | -5.84382 | 35916 ft | 460 kts | 22° |
| 2026-05-06 17:44 | 41.55822 | -5.80763 | 35913 ft | 460 kts | 22° |
| 2026-05-06 17:44 | 41.61610 | -5.77140 | 35921 ft | 460 kts | 22° |
| 2026-05-06 17:45 | 41.67402 | -5.73508 | 35919 ft | 459 kts | 22° |
| 2026-05-06 17:45 | 41.73190 | -5.69872 | 35918 ft | 459 kts | 22° |
| 2026-05-06 17:46 | 41.78928 | -5.66261 | 35919 ft | 459 kts | 22° |
| 2026-05-06 17:46 | 41.84704 | -5.62619 | 35924 ft | 458 kts | 22° |
| 2026-05-06 17:47 | 41.90470 | -5.58976 | 35927 ft | 458 kts | 22° |
| 2026-05-06 17:47 | 41.96228 | -5.55330 | 35927 ft | 457 kts | 22° |
| 2026-05-06 17:48 | 42.01987 | -5.51676 | 35925 ft | 457 kts | 22° |
| 2026-05-06 17:48 | 42.07738 | -5.48020 | 35939 ft | 457 kts | 23° |
| 2026-05-06 17:49 | 42.13484 | -5.44360 | 35930 ft | 456 kts | 23° |
| 2026-05-06 17:49 | 42.19218 | -5.40700 | 35931 ft | 456 kts | 23° |
| 2026-05-06 17:50 | 42.24951 | -5.37033 | 35933 ft | 456 kts | 23° |
| 2026-05-06 17:50 | 42.30682 | -5.33361 | 35935 ft | 455 kts | 23° |
| 2026-05-06 17:51 | 42.36395 | -5.29691 | 35939 ft | 454 kts | 23° |
| 2026-05-06 17:51 | 42.42102 | -5.26019 | 35938 ft | 454 kts | 23° |
| 2026-05-06 17:52 | 42.47807 | -5.22341 | 35936 ft | 454 kts | 23° |
| 2026-05-06 17:52 | 42.53506 | -5.18659 | 35938 ft | 454 kts | 23° |
| 2026-05-06 17:53 | 42.59206 | -5.14969 | 35943 ft | 453 kts | 23° |
| 2026-05-06 17:53 | 42.64896 | -5.11277 | 35947 ft | 453 kts | 23° |
| 2026-05-06 17:54 | 42.70586 | -5.07578 | 35953 ft | 453 kts | 23° |
| 2026-05-06 17:54 | 42.75316 | -5.04498 | 35960 ft | 453 kts | 23° |
| 2026-05-06 17:55 | 42.81003 | -5.00787 | 35966 ft | 453 kts | 23° |
| 2026-05-06 17:55 | 42.87612 | -4.96466 | 35965 ft | 453 kts | 23° |
| 2026-05-06 17:56 | 42.92378 | -4.93343 | 35980 ft | 453 kts | 23° |
| 2026-05-06 17:56 | 42.98054 | -4.89616 | 35977 ft | 453 kts | 23° |
| 2026-05-06 17:57 | 43.03729 | -4.85882 | 35990 ft | 452 kts | 23° |
| 2026-05-06 17:57 | 43.09364 | -4.82169 | 35997 ft | 452 kts | 23° |
| 2026-05-06 17:58 | 43.15036 | -4.78422 | 36001 ft | 452 kts | 23° |
| 2026-05-06 17:58 | 43.20694 | -4.74676 | 36005 ft | 451 kts | 23° |
| 2026-05-06 17:59 | 43.26347 | -4.70926 | 36011 ft | 451 kts | 23° |
| 2026-05-06 17:59 | 43.31998 | -4.67170 | 36011 ft | 451 kts | 23° |
| 2026-05-06 18:00 | 43.37646 | -4.63408 | 36014 ft | 451 kts | 24° |
| 2026-05-06 18:00 | 43.43292 | -4.59640 | 36015 ft | 450 kts | 24° |
| 2026-05-06 18:01 | 43.48930 | -4.55868 | 36014 ft | 451 kts | 24° |
| 2026-05-06 18:01 | 43.54572 | -4.52087 | 36021 ft | 451 kts | 24° |
| 2026-05-06 18:02 | 43.60203 | -4.48305 | 36006 ft | 450 kts | 24° |
| 2026-05-06 18:02 | 43.65828 | -4.44519 | 36007 ft | 450 kts | 24° |
| 2026-05-06 18:03 | 43.71448 | -4.40728 | 36004 ft | 450 kts | 24° |
| 2026-05-06 18:03 | 43.77033 | -4.36953 | 36003 ft | 449 kts | 24° |
| 2026-05-06 18:04 | 43.82648 | -4.33150 | 36001 ft | 449 kts | 24° |
| 2026-05-06 18:04 | 43.88256 | -4.29344 | 36001 ft | 448 kts | 24° |
| 2026-05-06 18:05 | 43.93859 | -4.25533 | 35999 ft | 448 kts | 24° |
| 2026-05-06 18:05 | 43.99455 | -4.21718 | 36002 ft | 448 kts | 24° |
| 2026-05-06 18:06 | 44.05041 | -4.17903 | 36000 ft | 447 kts | 24° |
| 2026-05-06 18:06 | 44.10618 | -4.14086 | 35999 ft | 447 kts | 24° |
| 2026-05-06 18:07 | 44.16198 | -4.10258 | 36002 ft | 447 kts | 24° |
| 2026-05-06 18:07 | 44.21771 | -4.06427 | 35997 ft | 446 kts | 24° |
| 2026-05-06 18:08 | 44.27331 | -4.02597 | 36002 ft | 446 kts | 24° |
| 2026-05-06 18:08 | 44.32840 | -3.98613 | 35996 ft | 447 kts | 31° |
| 2026-05-06 18:09 | 44.38043 | -3.93844 | 36002 ft | 447 kts | 32° |
| 2026-05-06 18:09 | 44.43177 | -3.88910 | 36000 ft | 448 kts | 33° |
| 2026-05-06 18:10 | 44.48293 | -3.83938 | 36001 ft | 448 kts | 33° |
| 2026-05-06 18:10 | 44.53414 | -3.78963 | 35999 ft | 447 kts | 33° |
| 2026-05-06 18:11 | 44.58516 | -3.74010 | 36000 ft | 446 kts | 33° |
| 2026-05-06 18:11 | 44.63610 | -3.69059 | 35998 ft | 445 kts | 33° |
| 2026-05-06 18:12 | 44.68701 | -3.64101 | 35996 ft | 445 kts | 33° |
| 2026-05-06 18:12 | 44.73756 | -3.59166 | 35996 ft | 445 kts | 33° |
| 2026-05-06 18:13 | 44.78840 | -3.54191 | 35996 ft | 445 kts | 33° |
| 2026-05-06 18:13 | 44.83923 | -3.49207 | 35993 ft | 445 kts | 33° |
| 2026-05-06 18:14 | 44.89005 | -3.44213 | 35995 ft | 445 kts | 33° |
| 2026-05-06 18:14 | 44.94080 | -3.39214 | 35995 ft | 445 kts | 33° |
| 2026-05-06 18:15 | 44.99148 | -3.34211 | 35998 ft | 444 kts | 33° |
| 2026-05-06 18:15 | 45.04208 | -3.29205 | 35999 ft | 444 kts | 33° |
| 2026-05-06 18:16 | 45.09261 | -3.24195 | 35998 ft | 443 kts | 33° |
| 2026-05-06 18:16 | 45.14312 | -3.19177 | 35992 ft | 443 kts | 33° |
| 2026-05-06 18:17 | 45.19357 | -3.14153 | 35993 ft | 443 kts | 33° |
| 2026-05-06 18:17 | 45.24399 | -3.09121 | 35992 ft | 443 kts | 33° |
| 2026-05-06 18:18 | 45.29439 | -3.04080 | 35993 ft | 443 kts | 33° |
| 2026-05-06 18:18 | 45.34462 | -2.99002 | 35992 ft | 443 kts | 34° |
| 2026-05-06 18:19 | 45.39454 | -2.93857 | 35999 ft | 442 kts | 34° |
| 2026-05-06 18:19 | 45.44427 | -2.88706 | 35995 ft | 442 kts | 34° |
| 2026-05-06 18:20 | 45.49406 | -2.83547 | 35997 ft | 442 kts | 34° |
| 2026-05-06 18:20 | 45.54385 | -2.78382 | 35995 ft | 442 kts | 34° |
| 2026-05-06 18:21 | 45.59356 | -2.73215 | 35986 ft | 442 kts | 34° |
| 2026-05-06 18:21 | 45.64324 | -2.68039 | 35991 ft | 442 kts | 34° |
| 2026-05-06 18:22 | 45.69291 | -2.62853 | 35989 ft | 442 kts | 34° |
| 2026-05-06 18:22 | 45.74255 | -2.57658 | 35983 ft | 442 kts | 34° |
| 2026-05-06 18:23 | 45.78374 | -2.53339 | 35978 ft | 441 kts | 34° |